createdAt,value
2019-04-28T00:00:21.437Z,2.72
2019-04-28T00:02:48.135Z,2.22
2019-04-28T00:05:16.597Z,2.10
2019-04-28T00:07:45.103Z,2.22
2019-04-28T00:10:13.557Z,2.30
2019-04-28T00:12:42.045Z,2.65
2019-04-28T00:15:10.887Z,2.62
2019-04-28T00:17:39.203Z,1.98
2019-04-28T00:20:08.842Z,2.08
2019-04-28T00:22:42.906Z,2.30
2019-04-28T00:25:17.594Z,2.02
2019-04-28T00:27:46.065Z,2.20
2019-04-28T00:30:14.540Z,2.40
2019-04-28T00:32:44.035Z,1.50
2019-04-28T00:35:12.420Z,1.42
2019-04-28T00:37:42.503Z,1.57
2019-04-28T00:40:11.127Z,1.15
2019-04-28T00:42:38.592Z,1.25
2019-04-28T00:45:07.728Z,1.17
2019-04-28T00:47:36.205Z,1.30
2019-04-28T00:50:05.082Z,1.40
2019-04-28T00:52:33.619Z,1.20
2019-04-28T00:55:02.551Z,1.10
2019-04-28T00:57:31.343Z,1.07
2019-04-28T01:00:02.099Z,1.37
2019-04-28T01:02:47.643Z,1.10
2019-04-28T01:05:16.142Z,1.10
2019-04-28T01:07:44.632Z,1.20
2019-04-28T01:10:13.100Z,1.80
2019-04-28T01:12:41.593Z,1.25
2019-04-28T01:15:29.820Z,1.12
2019-04-28T01:18:02.533Z,1.47
2019-04-28T01:20:31.304Z,1.75
2019-04-28T01:23:00.445Z,1.35
2019-04-28T01:25:29.865Z,1.65
2019-04-28T01:27:57.599Z,1.70
2019-04-28T01:30:49.951Z,1.27
2019-04-28T01:33:42.045Z,1.23
2019-04-28T01:36:10.828Z,1.30
2019-04-28T01:38:40.203Z,1.40
2019-04-28T01:41:09.704Z,1.40
2019-04-28T01:43:36.297Z,1.35
2019-04-28T01:48:39.454Z,1.67
2019-04-28T01:51:06.284Z,1.60
2019-04-28T01:53:34.727Z,1.47
2019-04-28T01:56:03.155Z,1.00
2019-04-28T01:58:31.925Z,1.32
2019-04-28T02:01:00.422Z,1.50
2019-04-28T02:03:30.694Z,1.60
2019-04-28T02:05:59.996Z,1.62
2019-04-28T02:08:26.590Z,1.47
2019-04-28T02:10:56.097Z,1.57
2019-04-28T02:13:25.608Z,1.22
2019-04-28T02:15:54.173Z,1.55
2019-04-28T02:18:29.944Z,1.67
2019-04-28T02:21:02.419Z,2.27
2019-04-28T02:23:31.189Z,1.67
2019-04-28T02:25:59.812Z,2.15
2019-04-28T02:28:29.620Z,1.60
2019-04-28T02:30:57.059Z,1.85
2019-04-28T02:33:25.556Z,1.70
2019-04-28T02:35:54.025Z,2.55
2019-04-28T02:38:22.590Z,2.02
2019-04-28T02:40:51.240Z,1.80
2019-04-28T02:43:20.834Z,2.35
2019-04-28T02:45:52.965Z,2.35
2019-04-28T02:48:21.110Z,1.70
2019-04-28T02:51:11.631Z,2.22
2019-04-28T02:53:44.979Z,1.50
2019-04-28T02:56:13.696Z,2.00
2019-04-28T02:58:42.229Z,1.62
2019-04-28T03:01:21.376Z,1.75
2019-04-28T03:03:40.804Z,1.98
2019-04-28T03:06:07.579Z,2.30
2019-04-28T03:08:37.075Z,1.70
2019-04-28T03:11:05.568Z,2.37
2019-04-28T03:13:35.062Z,2.30
2019-04-28T03:16:03.635Z,2.08
2019-04-28T03:18:32.059Z,1.82
2019-04-28T03:21:03.467Z,1.70
2019-04-28T03:23:31.143Z,2.08
2019-04-28T03:26:11.117Z,1.87
2019-04-28T03:28:45.591Z,1.92
2019-04-28T03:32:07.957Z,1.92
2019-04-28T03:34:07.985Z,2.47
2019-04-28T03:36:36.499Z,2.42
2019-04-28T03:39:05.569Z,2.02
2019-04-28T03:41:33.954Z,2.55
2019-04-28T03:44:02.538Z,1.92
2019-04-28T03:46:31.808Z,2.33
2019-04-28T03:49:00.974Z,2.15
2019-04-28T03:51:30.859Z,2.58
2019-04-28T03:54:00.646Z,2.35
2019-04-28T03:56:26.241Z,2.20
2019-04-28T03:58:54.724Z,2.45
2019-04-28T04:01:23.218Z,2.87
2019-04-28T04:03:52.785Z,2.77
2019-04-28T04:06:22.601Z,2.83
2019-04-28T04:08:50.616Z,2.40
2019-04-28T04:11:37.620Z,3.20
2019-04-28T04:14:11.965Z,2.40
2019-04-28T04:16:50.433Z,2.62
2019-04-28T04:19:20.368Z,2.30
2019-04-28T04:21:50.391Z,3.35
2019-04-28T04:24:15.990Z,3.00
2019-04-28T04:26:44.458Z,2.47
2019-04-28T04:29:12.953Z,2.92
2019-04-28T04:31:41.551Z,3.50
2019-04-28T04:34:10.711Z,2.87
2019-04-28T04:36:41.399Z,3.25
2019-04-28T04:39:07.093Z,3.83
2019-04-28T04:41:35.547Z,3.45
2019-04-28T04:44:04.043Z,3.33
2019-04-28T04:46:32.940Z,3.17
2019-04-28T04:49:01.454Z,3.17
2019-04-28T04:51:30.839Z,3.05
2019-04-28T04:54:01.192Z,3.22
2019-04-28T04:56:30.204Z,2.87
2019-04-28T04:58:57.014Z,3.50
2019-04-28T05:01:50.404Z,3.83
2019-04-28T05:04:23.977Z,3.92
2019-04-28T05:06:52.445Z,4.15
2019-04-28T05:09:22.882Z,4.25
2019-04-28T05:11:51.349Z,3.80
2019-04-28T05:14:20.119Z,3.85
2019-04-28T05:16:49.738Z,4.03
2019-04-28T05:19:17.023Z,4.08
2019-04-28T05:21:45.478Z,4.28
2019-04-28T05:24:46.279Z,4.50
2019-04-28T05:27:17.496Z,4.55
2019-04-28T05:29:42.166Z,4.62
2019-04-28T05:32:11.664Z,5.78
2019-04-28T05:34:46.793Z,5.25
2019-04-28T05:37:08.621Z,4.60
2019-04-28T05:39:38.563Z,5.22
2019-04-28T05:42:05.789Z,5.08
2019-04-28T05:44:34.278Z,5.10
2019-04-28T05:47:02.737Z,5.50
2019-04-28T05:50:00.328Z,4.97
2019-04-28T05:52:54.872Z,5.60
2019-04-28T05:55:27.004Z,5.55
2019-04-28T05:58:00.756Z,5.12
2019-04-28T06:01:04.376Z,5.25
2019-04-28T06:03:32.894Z,5.05
2019-04-28T06:06:01.338Z,5.15
2019-04-28T06:08:37.897Z,9.50
2019-04-28T06:11:24.055Z,5.35
2019-04-28T06:13:52.662Z,4.70
2019-04-28T06:16:22.132Z,5.37
2019-04-28T06:18:50.054Z,5.00
2019-04-28T06:21:18.039Z,4.12
2019-04-28T06:23:46.567Z,4.17
2019-04-28T06:26:14.999Z,3.92
2019-04-28T06:28:43.470Z,3.90
2019-04-28T06:31:11.961Z,4.05
2019-04-28T06:33:40.446Z,3.90
2019-04-28T06:36:09.028Z,3.77
2019-04-28T06:38:37.500Z,3.95
2019-04-28T06:41:05.988Z,4.42
2019-04-28T06:43:34.454Z,3.52
2019-04-28T06:46:03.047Z,4.22
2019-04-28T06:48:37.192Z,4.10
2019-04-28T06:51:05.672Z,4.10
2019-04-28T06:53:38.199Z,3.65
2019-04-28T06:56:11.533Z,3.60
2019-04-28T06:58:40.768Z,3.60
2019-04-28T07:01:09.311Z,3.47
2019-04-28T07:03:41.524Z,3.10
2019-04-28T07:06:10.946Z,3.45
2019-04-28T07:08:41.677Z,3.52
2019-04-28T07:11:11.452Z,3.53
2019-04-28T07:13:40.552Z,3.90
2019-04-28T07:16:11.621Z,3.62
2019-04-28T07:18:40.096Z,3.02
2019-04-28T07:21:13.998Z,3.40
2019-04-28T07:23:42.717Z,2.90
2019-04-28T07:26:11.172Z,3.17
2019-04-28T07:28:39.941Z,2.90
2019-04-28T07:31:08.479Z,3.27
2019-04-28T07:33:36.929Z,3.37
2019-04-28T07:36:05.459Z,3.60
2019-04-28T07:38:34.753Z,3.05
2019-04-28T07:41:03.305Z,3.27
2019-04-28T07:43:31.961Z,2.92
2019-04-28T07:46:00.341Z,3.22
2019-04-28T07:48:30.119Z,3.40
2019-04-28T07:51:02.217Z,2.90
2019-04-28T07:53:34.858Z,2.98
2019-04-28T07:56:06.057Z,3.00
2019-04-28T07:58:34.876Z,3.62
2019-04-28T08:01:04.567Z,2.80
2019-04-28T08:03:33.384Z,3.62
2019-04-28T08:06:03.002Z,3.33
2019-04-28T08:08:38.521Z,4.08
2019-04-28T08:11:07.761Z,2.80
2019-04-28T08:13:37.421Z,3.50
2019-04-28T08:16:08.743Z,2.98
2019-04-28T08:18:37.228Z,3.00
2019-04-28T08:21:10.481Z,3.00
2019-04-28T08:23:46.858Z,2.60
2019-04-28T08:26:07.750Z,3.20
2019-04-28T08:28:37.527Z,3.25
2019-04-28T08:31:06.966Z,2.50
2019-04-28T08:33:38.616Z,2.92
2019-04-28T08:36:07.186Z,2.83
2019-04-28T08:38:35.693Z,2.77
2019-04-28T08:41:05.291Z,2.60
2019-04-28T08:43:34.027Z,2.80
2019-04-28T08:46:02.610Z,2.60
2019-04-28T08:48:31.055Z,3.10
2019-04-28T08:50:59.541Z,2.87
2019-04-28T08:53:28.010Z,2.90
2019-04-28T08:55:56.506Z,2.87
2019-04-28T08:58:25.060Z,2.35
2019-04-28T09:00:57.857Z,2.40
2019-04-28T09:03:26.337Z,2.50
2019-04-28T09:05:55.893Z,2.10
2019-04-28T09:08:30.771Z,2.22
2019-04-28T09:10:59.752Z,2.40
2019-04-28T09:13:28.451Z,1.97
2019-04-28T09:16:03.936Z,2.35
2019-04-28T09:18:32.473Z,2.50
2019-04-28T09:21:00.978Z,1.90
2019-04-28T09:23:37.336Z,1.72
2019-04-28T09:26:01.663Z,2.40
2019-04-28T09:28:38.687Z,2.08
2019-04-28T09:31:05.330Z,2.12
2019-04-28T09:33:36.805Z,2.20
2019-04-28T09:36:06.260Z,2.42
2019-04-28T09:38:38.155Z,2.45
2019-04-28T09:41:11.637Z,2.20
2019-04-28T09:44:01.896Z,2.33
2019-04-28T09:46:35.599Z,2.30
2019-04-28T09:49:31.243Z,2.20
2019-04-28T09:52:00.762Z,1.85
2019-04-28T09:54:31.130Z,2.10
2019-04-28T09:56:59.583Z,2.20
2019-04-28T09:59:32.546Z,2.00
2019-04-28T10:02:04.267Z,2.02
2019-04-28T10:04:41.262Z,2.50
2019-04-28T10:07:02.265Z,2.47
2019-04-28T10:09:30.829Z,2.10
2019-04-28T10:11:59.265Z,1.57
2019-04-28T10:14:27.742Z,1.87
2019-04-28T10:16:57.239Z,2.20
2019-04-28T10:19:25.744Z,2.12
2019-04-28T10:21:54.219Z,2.05
2019-04-28T10:24:22.704Z,2.00
2019-04-28T10:26:53.130Z,1.80
2019-04-28T10:29:26.571Z,2.23
2019-04-28T10:31:58.574Z,2.65
2019-04-28T10:34:27.367Z,2.15
2019-04-28T10:37:01.974Z,1.62
2019-04-28T10:39:40.356Z,1.37
2019-04-28T10:42:08.802Z,1.65
2019-04-28T10:44:39.348Z,1.77
2019-04-28T10:47:27.691Z,1.50
2019-04-28T10:49:56.184Z,1.67
2019-04-28T10:52:30.729Z,1.10
2019-04-28T10:55:01.311Z,1.60
2019-04-28T10:57:29.818Z,1.50
2019-04-28T10:59:58.551Z,1.57
2019-04-28T11:02:32.934Z,1.92
2019-04-28T11:05:16.867Z,2.30
2019-04-28T11:07:49.287Z,3.95
2019-04-28T11:10:18.112Z,2.60
2019-04-28T11:12:46.615Z,2.33
2019-04-28T11:15:22.195Z,3.35
2019-04-28T11:17:50.968Z,1.75
2019-04-28T11:20:19.354Z,2.02
2019-04-28T11:22:53.373Z,1.90
2019-04-28T11:25:26.987Z,1.67
2019-04-28T11:28:01.294Z,1.82
2019-04-28T11:30:44.404Z,1.82
2019-04-28T11:33:18.581Z,1.45
2019-04-28T11:35:48.083Z,1.85
2019-04-28T11:38:17.244Z,1.57
2019-04-28T11:40:45.703Z,1.60
2019-04-28T11:43:14.210Z,1.82
2019-04-28T11:45:43.710Z,1.98
2019-04-28T11:48:12.434Z,2.22
2019-04-28T11:50:41.005Z,2.30
2019-04-28T11:53:10.377Z,2.10
2019-04-28T11:55:39.064Z,2.17
2019-04-28T11:58:07.505Z,1.62
2019-04-28T12:00:37.018Z,1.77
2019-04-28T12:03:05.746Z,1.70
2019-04-28T12:05:38.525Z,11.83
2019-04-28T12:08:08.713Z,2.33
2019-04-28T12:10:41.252Z,2.60
2019-04-28T12:13:15.622Z,3.10
2019-04-28T12:16:16.635Z,4.70
2019-04-28T12:19:03.217Z,2.27
2019-04-28T12:21:31.736Z,1.32
2019-04-28T12:24:00.232Z,1.67
2019-04-28T12:26:28.785Z,1.80
2019-04-28T12:29:00.855Z,1.57
2019-04-28T12:31:30.146Z,1.40
2019-04-28T12:39:15.791Z,1.50
2019-04-28T12:41:46.558Z,1.77
2019-04-28T12:44:17.150Z,1.40
2019-04-28T12:46:52.394Z,1.70
2019-04-28T12:49:37.454Z,1.90
2019-04-28T12:52:06.935Z,1.80
2019-04-28T12:54:35.519Z,1.72
2019-04-28T12:57:03.885Z,1.75
2019-04-28T12:59:37.286Z,2.17
2019-04-28T13:02:10.315Z,2.05
2019-04-28T13:04:47.806Z,1.70
2019-04-28T13:07:16.237Z,1.90
2019-04-28T13:09:44.725Z,2.08
2019-04-28T13:12:13.613Z,1.98
2019-04-28T13:14:42.102Z,1.60
2019-04-28T13:17:10.824Z,1.62
2019-04-28T13:19:39.294Z,1.52
2019-04-28T13:22:07.764Z,1.82
2019-04-28T13:24:36.253Z,2.42
2019-04-28T13:27:04.741Z,1.50
2019-04-28T13:29:33.221Z,1.90
2019-04-28T13:32:01.701Z,1.60
2019-04-28T13:34:30.189Z,1.52
2019-04-28T13:36:58.664Z,1.55
2019-04-28T13:39:33.811Z,6.92
2019-04-28T13:42:03.288Z,1.70
2019-04-28T13:44:49.380Z,1.60
2019-04-28T13:47:17.860Z,1.67
2019-04-28T13:49:50.564Z,1.27
2019-04-28T13:52:19.063Z,1.57
2019-04-28T13:54:47.597Z,1.60
2019-04-28T13:57:16.043Z,2.72
2019-04-28T13:59:44.555Z,1.50
2019-04-28T14:02:21.646Z,1.32
2019-04-28T14:05:07.846Z,1.17
2019-04-28T14:07:36.366Z,1.52
2019-04-28T14:10:05.773Z,1.20
2019-04-28T14:12:34.305Z,1.25
2019-04-28T14:15:02.887Z,1.77
2019-04-28T14:17:50.672Z,1.95
2019-04-28T14:20:20.116Z,1.10
2019-04-28T14:22:48.618Z,1.35
2019-04-28T14:25:17.074Z,1.67
2019-04-28T14:27:47.273Z,1.10
2019-04-28T14:30:24.483Z,1.63
2019-04-28T14:32:52.956Z,3.83
2019-04-28T14:35:21.518Z,1.55
2019-04-28T14:37:50.944Z,1.07
2019-04-28T14:40:19.451Z,0.93
2019-04-28T14:42:47.937Z,1.52
2019-04-28T14:45:16.474Z,1.52
2019-04-28T14:47:44.912Z,1.30
2019-04-28T14:50:13.668Z,1.25
2019-04-28T14:52:42.068Z,0.90
2019-04-28T14:55:10.618Z,1.60
2019-04-28T14:57:39.029Z,1.27
2019-04-28T15:00:07.572Z,1.40
2019-04-28T15:02:49.007Z,1.50
2019-04-28T15:05:31.422Z,1.22
2019-04-28T15:08:28.275Z,1.30
2019-04-28T15:11:00.613Z,1.70
2019-04-28T15:13:29.360Z,1.10
2019-04-28T15:15:57.789Z,1.65
2019-04-28T15:18:26.191Z,1.70
2019-04-28T15:20:54.702Z,1.47
2019-04-28T15:23:23.240Z,1.27
2019-04-28T15:25:51.679Z,1.70
2019-04-28T15:28:20.147Z,2.42
2019-04-28T15:30:48.589Z,2.00
2019-04-28T15:33:17.080Z,1.90
2019-04-28T15:35:46.276Z,2.35
2019-04-28T15:38:16.690Z,1.67
2019-04-28T15:40:43.371Z,1.77
2019-04-28T15:43:11.820Z,1.75
2019-04-28T15:45:40.292Z,1.25
2019-04-28T15:48:08.724Z,1.62
2019-04-28T15:50:38.320Z,1.90
2019-04-28T15:53:06.704Z,1.80
2019-04-28T15:55:40.085Z,1.40
2019-04-28T15:58:29.642Z,1.42
2019-04-28T16:00:59.430Z,1.70
2019-04-28T16:03:28.005Z,1.98
2019-04-28T16:05:59.591Z,1.62
2019-04-28T16:08:24.925Z,1.82
2019-04-28T16:10:53.686Z,1.42
2019-04-28T16:13:22.453Z,1.35
2019-04-28T16:15:50.883Z,1.90
2019-04-28T16:18:22.555Z,1.64
2019-04-28T16:20:51.321Z,2.00
2019-04-28T16:23:19.830Z,1.82
2019-04-28T16:25:48.299Z,1.62
2019-04-28T16:28:16.781Z,1.87
2019-04-28T16:30:45.362Z,1.75
2019-04-28T16:33:13.856Z,2.52
2019-04-28T16:35:42.835Z,1.98
2019-04-28T16:38:11.322Z,2.37
2019-04-28T16:40:41.542Z,2.37
2019-04-28T16:43:10.031Z,1.98
2019-04-28T16:45:38.498Z,2.60
2019-04-28T16:48:06.959Z,2.65
2019-04-28T16:50:36.516Z,2.15
2019-04-28T16:53:04.920Z,1.82
2019-04-28T16:55:39.029Z,1.62
2019-04-28T16:58:17.013Z,1.80
2019-04-28T17:00:57.595Z,1.77
2019-04-28T17:03:26.117Z,1.60
2019-04-28T17:05:54.839Z,2.30
2019-04-28T17:08:23.353Z,1.90
2019-04-28T17:10:51.828Z,1.87
2019-04-28T17:13:20.314Z,1.40
2019-04-28T17:15:48.776Z,1.02
2019-04-28T17:18:17.203Z,1.35
2019-04-28T17:20:45.700Z,1.45
2019-04-28T17:23:14.305Z,1.47
2019-04-28T17:25:42.650Z,2.10
2019-04-28T17:28:11.132Z,1.85
2019-04-28T17:30:40.637Z,1.35
2019-04-28T17:33:09.227Z,1.60
2019-04-28T17:35:37.726Z,1.52
2019-04-28T17:38:07.159Z,1.65
2019-04-28T17:40:36.161Z,1.82
2019-04-28T17:43:04.836Z,1.65
2019-04-28T17:45:33.322Z,1.72
2019-04-28T17:48:27.451Z,1.57
2019-04-28T17:50:55.961Z,8.67
2019-04-28T17:53:24.536Z,2.52
2019-04-28T17:55:53.023Z,1.80
2019-04-28T17:58:21.795Z,2.08
2019-04-28T18:01:19.012Z,1.75
2019-04-28T18:04:11.706Z,1.70
2019-04-28T18:06:45.755Z,3.08
2019-04-28T18:09:16.265Z,16.90
2019-04-28T18:11:45.021Z,8.63
2019-04-28T18:14:22.542Z,4.17
2019-04-28T18:17:28.410Z,4.10
2019-04-28T18:19:56.914Z,2.55
2019-04-28T18:22:25.360Z,2.35
2019-04-28T18:24:53.791Z,3.10
2019-04-28T18:27:22.216Z,2.55
2019-04-28T18:29:51.072Z,4.15
2019-04-28T18:32:34.349Z,5.20
2019-04-28T18:35:17.763Z,3.47
2019-04-28T18:38:01.951Z,3.40
2019-04-28T18:40:49.713Z,2.95
2019-04-28T18:43:40.195Z,2.52
2019-04-28T18:46:08.637Z,1.97
2019-04-28T18:48:37.084Z,1.90
2019-04-28T18:51:05.859Z,1.50
2019-04-28T18:53:34.632Z,1.12
2019-04-28T18:56:03.183Z,2.22
2019-04-28T18:58:31.624Z,2.80
2019-04-28T19:01:17.229Z,2.35
2019-04-28T19:03:45.700Z,1.72
2019-04-28T19:06:14.162Z,2.85
2019-04-28T19:08:51.759Z,3.12
2019-04-28T19:11:28.347Z,2.50
2019-04-28T19:14:00.005Z,3.58
2019-04-28T19:19:15.585Z,3.17
2019-04-28T19:21:54.215Z,3.50
2019-04-28T19:24:23.464Z,3.20
2019-04-28T19:26:52.740Z,3.65
2019-04-28T19:29:21.218Z,3.50
2019-04-28T19:31:50.801Z,3.70
2019-04-28T19:34:19.300Z,5.45
2019-04-28T19:36:47.826Z,7.53
2019-04-28T19:39:18.340Z,8.53
2019-04-28T19:41:46.848Z,6.53
2019-04-28T19:44:15.474Z,3.33
2019-04-28T19:46:44.344Z,2.47
2019-04-28T19:49:12.778Z,3.02
2019-04-28T19:51:41.564Z,3.27
2019-04-28T19:54:11.158Z,3.02
2019-04-28T19:56:46.897Z,2.60
2019-04-28T19:59:19.953Z,3.37
2019-04-28T20:01:48.437Z,3.30
2019-04-28T20:04:16.873Z,3.55
2019-04-28T20:06:45.373Z,4.30
2019-04-28T20:09:13.828Z,8.50
2019-04-28T20:11:42.431Z,4.22
2019-04-28T20:14:10.895Z,2.60
2019-04-28T20:16:40.441Z,2.33
2019-04-28T20:19:08.843Z,2.60
2019-04-28T20:21:42.232Z,2.20
2019-04-28T20:24:10.711Z,1.90
2019-04-28T20:26:39.194Z,1.90
2019-04-28T20:29:07.638Z,2.12
2019-04-28T20:31:36.407Z,2.45
2019-04-28T20:34:04.917Z,3.17
2019-04-28T20:36:56.613Z,3.92
2019-04-28T20:39:30.546Z,4.55
2019-04-28T20:42:18.307Z,4.25
2019-04-28T20:44:46.995Z,4.25
2019-04-28T20:47:16.484Z,4.60
2019-04-28T20:49:45.969Z,3.77
2019-04-28T20:52:15.434Z,4.12
2019-04-28T20:54:43.951Z,4.03
2019-04-28T20:57:14.755Z,3.60
2019-04-28T20:59:44.339Z,4.17
2019-04-28T21:02:13.121Z,3.33
2019-04-28T21:04:42.557Z,3.75
2019-04-28T21:07:11.026Z,3.35
2019-04-28T21:09:41.494Z,3.72
2019-04-28T21:12:09.938Z,3.65
2019-04-28T21:14:38.424Z,3.60
2019-04-28T21:17:12.737Z,2.80
2019-04-28T21:19:41.168Z,2.90
2019-04-28T21:22:09.703Z,2.98
2019-04-28T21:24:39.120Z,2.62
2019-04-28T21:27:07.603Z,2.52
2019-04-28T21:29:36.332Z,2.60
2019-04-28T21:32:05.148Z,3.22
2019-04-28T21:34:33.548Z,2.75
2019-04-28T21:37:02.025Z,2.62
2019-04-28T21:39:30.509Z,2.50
2019-04-28T21:41:59.067Z,2.90
2019-04-28T21:44:36.070Z,2.70
2019-04-28T21:47:13.062Z,3.22
2019-04-28T21:49:42.059Z,3.72
2019-04-28T21:52:10.663Z,3.47
2019-04-28T21:54:39.331Z,2.90
2019-04-28T21:57:07.840Z,3.37
2019-04-28T21:59:36.330Z,2.90
2019-04-28T22:02:04.799Z,2.77
2019-04-28T22:04:33.543Z,2.90
2019-04-28T22:07:02.995Z,3.12
2019-04-28T22:09:31.767Z,2.83
2019-04-28T22:12:00.276Z,3.02
2019-04-28T22:14:28.761Z,3.55
2019-04-28T22:16:57.427Z,3.05
2019-04-28T22:19:25.829Z,3.52
2019-04-28T22:21:54.308Z,2.90
2019-04-28T22:24:35.329Z,3.60
2019-04-28T22:29:31.524Z,3.20
2019-04-28T22:32:00.005Z,3.77
2019-04-28T22:34:28.490Z,3.40
2019-04-28T22:36:57.572Z,3.33
2019-04-28T22:39:26.078Z,3.20
2019-04-28T22:41:54.541Z,3.60
2019-04-28T22:44:23.020Z,3.27
2019-04-28T22:46:51.503Z,3.90
2019-04-28T22:49:19.942Z,3.47
2019-04-28T22:51:48.436Z,3.35
2019-04-28T22:54:24.159Z,6.87
2019-04-28T22:57:01.073Z,3.27
2019-04-28T22:59:32.586Z,2.83
2019-04-28T23:02:05.387Z,2.25
2019-04-28T23:05:02.125Z,3.50
2019-04-28T23:07:30.622Z,3.45
2019-04-28T23:09:59.092Z,4.10
2019-04-28T23:12:27.788Z,3.80
2019-04-28T23:14:56.266Z,3.90
2019-04-28T23:17:24.744Z,3.20
2019-04-28T23:19:53.225Z,3.85
2019-04-28T23:22:29.027Z,3.83
2019-04-28T23:24:57.870Z,3.95
2019-04-28T23:27:26.368Z,3.40
2019-04-28T23:29:54.924Z,3.65
2019-04-28T23:32:23.317Z,3.92
2019-04-28T23:37:29.794Z,3.65
2019-04-28T23:39:58.297Z,3.80
2019-04-28T23:42:52.958Z,3.50
2019-04-28T23:45:21.439Z,3.77
2019-04-28T23:47:49.842Z,3.75
2019-04-28T23:50:20.351Z,3.72
2019-04-28T23:52:55.718Z,3.55
2019-04-28T23:55:25.417Z,3.87
2019-04-28T23:57:54.922Z,4.22
